sensor_id;sensor_type;location;lat;lon;timestamp;P1;durP1;ratioP1;P2;durP2;ratioP2
57303;SDS011;43150;50.986;18.208;2023-02-18T00:00:52;1.80;;;1.50;;
57303;SDS011;43150;50.986;18.208;2023-02-18T00:03:17;1.10;;;0.70;;
57303;SDS011;43150;50.986;18.208;2023-02-18T00:05:43;2.70;;;1.20;;
57303;SDS011;43150;50.986;18.208;2023-02-18T00:08:09;2.10;;;0.70;;
57303;SDS011;43150;50.986;18.208;2023-02-18T00:10:34;1.90;;;0.90;;
57303;SDS011;43150;50.986;18.208;2023-02-18T00:13:00;1.70;;;0.60;;
57303;SDS011;43150;50.986;18.208;2023-02-18T00:15:25;2.10;;;0.80;;
57303;SDS011;43150;50.986;18.208;2023-02-18T00:17:51;1.90;;;0.50;;
57303;SDS011;43150;50.986;18.208;2023-02-18T00:20:16;1.70;;;0.80;;
57303;SDS011;43150;50.986;18.208;2023-02-18T00:22:42;0.70;;;0.50;;
57303;SDS011;43150;50.986;18.208;2023-02-18T00:25:08;1.50;;;0.60;;
57303;SDS011;43150;50.986;18.208;2023-02-18T00:27:33;2.00;;;0.60;;
57303;SDS011;43150;50.986;18.208;2023-02-18T00:29:59;2.30;;;0.40;;
57303;SDS011;43150;50.986;18.208;2023-02-18T00:32:24;1.30;;;0.60;;
57303;SDS011;43150;50.986;18.208;2023-02-18T00:34:50;1.00;;;0.50;;
57303;SDS011;43150;50.986;18.208;2023-02-18T00:37:15;1.40;;;0.40;;
57303;SDS011;43150;50.986;18.208;2023-02-18T00:39:41;2.20;;;0.70;;
57303;SDS011;43150;50.986;18.208;2023-02-18T00:42:07;0.90;;;0.40;;
57303;SDS011;43150;50.986;18.208;2023-02-18T00:44:33;0.40;;;0.40;;
57303;SDS011;43150;50.986;18.208;2023-02-18T00:46:59;1.60;;;0.70;;
57303;SDS011;43150;50.986;18.208;2023-02-18T00:49:24;1.40;;;0.70;;
57303;SDS011;43150;50.986;18.208;2023-02-18T00:51:50;0.60;;;0.50;;
57303;SDS011;43150;50.986;18.208;2023-02-18T00:54:16;1.90;;;0.70;;
57303;SDS011;43150;50.986;18.208;2023-02-18T00:56:41;0.80;;;0.50;;
57303;SDS011;43150;50.986;18.208;2023-02-18T00:59:07;1.10;;;0.50;;
57303;SDS011;43150;50.986;18.208;2023-02-18T01:01:33;1.60;;;0.60;;
57303;SDS011;43150;50.986;18.208;2023-02-18T01:03:59;1.90;;;0.60;;
57303;SDS011;43150;50.986;18.208;2023-02-18T01:06:25;0.90;;;0.50;;
57303;SDS011;43150;50.986;18.208;2023-02-18T01:08:51;2.30;;;0.70;;
57303;SDS011;43150;50.986;18.208;2023-02-18T01:11:17;2.50;;;0.80;;
57303;SDS011;43150;50.986;18.208;2023-02-18T01:13:42;2.50;;;1.00;;
57303;SDS011;43150;50.986;18.208;2023-02-18T01:16:08;0.80;;;0.50;;
57303;SDS011;43150;50.986;18.208;2023-02-18T01:18:37;0.90;;;0.60;;
57303;SDS011;43150;50.986;18.208;2023-02-18T01:21:04;0.50;;;0.30;;
57303;SDS011;43150;50.986;18.208;2023-02-18T01:23:33;0.80;;;0.60;;
57303;SDS011;43150;50.986;18.208;2023-02-18T01:25:58;1.70;;;0.60;;
57303;SDS011;43150;50.986;18.208;2023-02-18T01:28:24;1.10;;;0.50;;
57303;SDS011;43150;50.986;18.208;2023-02-18T01:30:51;1.50;;;0.70;;
57303;SDS011;43150;50.986;18.208;2023-02-18T01:33:18;0.90;;;0.50;;
57303;SDS011;43150;50.986;18.208;2023-02-18T01:35:47;0.50;;;0.30;;
57303;SDS011;43150;50.986;18.208;2023-02-18T01:38:16;1.00;;;0.70;;
57303;SDS011;43150;50.986;18.208;2023-02-18T01:40:46;0.70;;;0.30;;
57303;SDS011;43150;50.986;18.208;2023-02-18T01:43:12;0.30;;;0.30;;
57303;SDS011;43150;50.986;18.208;2023-02-18T01:45:47;1.30;;;0.60;;
57303;SDS011;43150;50.986;18.208;2023-02-18T01:48:16;1.40;;;0.50;;
57303;SDS011;43150;50.986;18.208;2023-02-18T01:50:44;0.70;;;0.60;;
57303;SDS011;43150;50.986;18.208;2023-02-18T01:53:14;2.10;;;0.60;;
57303;SDS011;43150;50.986;18.208;2023-02-18T01:55:41;2.90;;;1.30;;
57303;SDS011;43150;50.986;18.208;2023-02-18T01:58:07;3.40;;;0.80;;
57303;SDS011;43150;50.986;18.208;2023-02-18T02:00:33;0.60;;;0.60;;
57303;SDS011;43150;50.986;18.208;2023-02-18T02:03:07;2.40;;;0.90;;
57303;SDS011;43150;50.986;18.208;2023-02-18T02:05:33;0.30;;;0.30;;
57303;SDS011;43150;50.986;18.208;2023-02-18T02:07:59;2.80;;;0.50;;
57303;SDS011;43150;50.986;18.208;2023-02-18T02:10:39;1.60;;;0.80;;
57303;SDS011;43150;50.986;18.208;2023-02-18T02:13:16;0.50;;;0.50;;
57303;SDS011;43150;50.986;18.208;2023-02-18T02:16:03;0.40;;;0.40;;
57303;SDS011;43150;50.986;18.208;2023-02-18T02:18:33;1.10;;;0.90;;
57303;SDS011;43150;50.986;18.208;2023-02-18T02:31:52;3.70;;;0.60;;
57303;SDS011;43150;50.986;18.208;2023-02-18T02:34:36;0.80;;;0.60;;
57303;SDS011;43150;50.986;18.208;2023-02-18T02:39:45;1.70;;;0.50;;
57303;SDS011;43150;50.986;18.208;2023-02-18T02:52:25;0.90;;;0.40;;
57303;SDS011;43150;50.986;18.208;2023-02-18T02:54:54;1.10;;;0.50;;
57303;SDS011;43150;50.986;18.208;2023-02-18T02:59:47;1.70;;;0.40;;
57303;SDS011;43150;50.986;18.208;2023-02-18T03:05:24;0.90;;;0.50;;
57303;SDS011;43150;50.986;18.208;2023-02-18T03:07:58;0.90;;;0.40;;
57303;SDS011;43150;50.986;18.208;2023-02-18T03:15:34;0.40;;;0.30;;
57303;SDS011;43150;50.986;18.208;2023-02-18T03:18:12;0.50;;;0.40;;
57303;SDS011;43150;50.986;18.208;2023-02-18T03:20:45;1.00;;;0.40;;
57303;SDS011;43150;50.986;18.208;2023-02-18T03:23:14;0.60;;;0.50;;
57303;SDS011;43150;50.986;18.208;2023-02-18T03:25:47;1.40;;;0.50;;
57303;SDS011;43150;50.986;18.208;2023-02-18T03:28:17;2.40;;;0.70;;
57303;SDS011;43150;50.986;18.208;2023-02-18T03:30:45;1.00;;;0.30;;
57303;SDS011;43150;50.986;18.208;2023-02-18T03:33:22;0.60;;;0.30;;
57303;SDS011;43150;50.986;18.208;2023-02-18T03:35:50;2.80;;;0.40;;
57303;SDS011;43150;50.986;18.208;2023-02-18T03:38:19;1.20;;;0.30;;
57303;SDS011;43150;50.986;18.208;2023-02-18T03:40:46;2.20;;;0.40;;
57303;SDS011;43150;50.986;18.208;2023-02-18T03:43:12;1.00;;;0.50;;
57303;SDS011;43150;50.986;18.208;2023-02-18T03:45:37;1.20;;;0.50;;
57303;SDS011;43150;50.986;18.208;2023-02-18T03:48:03;3.50;;;0.60;;
57303;SDS011;43150;50.986;18.208;2023-02-18T03:50:29;1.50;;;0.30;;
57303;SDS011;43150;50.986;18.208;2023-02-18T03:52:54;0.20;;;0.20;;
57303;SDS011;43150;50.986;18.208;2023-02-18T03:55:20;2.70;;;0.80;;
57303;SDS011;43150;50.986;18.208;2023-02-18T03:57:45;2.30;;;0.80;;
57303;SDS011;43150;50.986;18.208;2023-02-18T04:00:11;1.70;;;0.30;;
57303;SDS011;43150;50.986;18.208;2023-02-18T04:02:37;0.90;;;0.50;;
57303;SDS011;43150;50.986;18.208;2023-02-18T04:05:02;1.90;;;0.60;;
57303;SDS011;43150;50.986;18.208;2023-02-18T04:07:29;3.20;;;0.80;;
57303;SDS011;43150;50.986;18.208;2023-02-18T04:09:54;2.70;;;0.80;;
57303;SDS011;43150;50.986;18.208;2023-02-18T04:12:19;4.10;;;1.00;;
57303;SDS011;43150;50.986;18.208;2023-02-18T04:14:48;2.20;;;0.60;;
57303;SDS011;43150;50.986;18.208;2023-02-18T04:17:16;2.80;;;0.50;;
57303;SDS011;43150;50.986;18.208;2023-02-18T04:19:42;2.80;;;0.60;;
57303;SDS011;43150;50.986;18.208;2023-02-18T04:22:07;0.60;;;0.40;;
57303;SDS011;43150;50.986;18.208;2023-02-18T04:24:32;0.90;;;0.40;;
57303;SDS011;43150;50.986;18.208;2023-02-18T04:26:58;2.20;;;0.40;;
57303;SDS011;43150;50.986;18.208;2023-02-18T04:29:24;1.80;;;0.50;;
57303;SDS011;43150;50.986;18.208;2023-02-18T04:31:53;0.50;;;0.30;;
57303;SDS011;43150;50.986;18.208;2023-02-18T04:34:20;1.10;;;0.60;;
57303;SDS011;43150;50.986;18.208;2023-02-18T04:36:45;2.80;;;0.90;;
57303;SDS011;43150;50.986;18.208;2023-02-18T04:39:11;1.70;;;0.50;;
57303;SDS011;43150;50.986;18.208;2023-02-18T04:41:36;2.30;;;0.30;;
57303;SDS011;43150;50.986;18.208;2023-02-18T04:44:02;1.40;;;0.60;;
57303;SDS011;43150;50.986;18.208;2023-02-18T04:46:28;1.20;;;0.30;;
57303;SDS011;43150;50.986;18.208;2023-02-18T04:48:53;1.60;;;0.90;;
57303;SDS011;43150;50.986;18.208;2023-02-18T04:51:30;0.70;;;0.30;;
57303;SDS011;43150;50.986;18.208;2023-02-18T04:53:55;0.90;;;0.30;;
57303;SDS011;43150;50.986;18.208;2023-02-18T04:56:21;0.80;;;0.30;;
57303;SDS011;43150;50.986;18.208;2023-02-18T04:58:47;3.50;;;0.70;;
57303;SDS011;43150;50.986;18.208;2023-02-18T05:01:12;1.40;;;0.30;;
57303;SDS011;43150;50.986;18.208;2023-02-18T05:03:38;2.50;;;0.70;;
57303;SDS011;43150;50.986;18.208;2023-02-18T05:06:04;0.20;;;0.20;;
57303;SDS011;43150;50.986;18.208;2023-02-18T05:08:29;1.30;;;0.30;;
57303;SDS011;43150;50.986;18.208;2023-02-18T05:10:58;1.20;;;0.40;;
57303;SDS011;43150;50.986;18.208;2023-02-18T05:13:23;1.90;;;0.90;;
57303;SDS011;43150;50.986;18.208;2023-02-18T05:15:51;0.80;;;0.40;;
57303;SDS011;43150;50.986;18.208;2023-02-18T05:18:17;1.00;;;0.50;;
57303;SDS011;43150;50.986;18.208;2023-02-18T05:20:42;1.00;;;0.30;;
57303;SDS011;43150;50.986;18.208;2023-02-18T05:23:08;0.80;;;0.40;;
57303;SDS011;43150;50.986;18.208;2023-02-18T05:25:33;3.70;;;0.60;;
57303;SDS011;43150;50.986;18.208;2023-02-18T05:27:59;3.30;;;0.50;;
57303;SDS011;43150;50.986;18.208;2023-02-18T05:30:25;1.10;;;0.70;;
57303;SDS011;43150;50.986;18.208;2023-02-18T05:32:51;5.10;;;0.60;;
57303;SDS011;43150;50.986;18.208;2023-02-18T05:35:16;2.60;;;0.60;;
57303;SDS011;43150;50.986;18.208;2023-02-18T05:37:42;3.40;;;0.40;;
57303;SDS011;43150;50.986;18.208;2023-02-18T05:40:07;1.10;;;0.30;;
57303;SDS011;43150;50.986;18.208;2023-02-18T05:42:33;1.90;;;0.50;;
57303;SDS011;43150;50.986;18.208;2023-02-18T05:44:59;1.20;;;0.40;;
57303;SDS011;43150;50.986;18.208;2023-02-18T05:47:25;1.90;;;0.80;;
57303;SDS011;43150;50.986;18.208;2023-02-18T05:49:50;0.60;;;0.40;;
57303;SDS011;43150;50.986;18.208;2023-02-18T05:52:16;2.60;;;0.60;;
57303;SDS011;43150;50.986;18.208;2023-02-18T05:54:41;0.80;;;0.40;;
57303;SDS011;43150;50.986;18.208;2023-02-18T05:57:07;0.80;;;0.50;;
57303;SDS011;43150;50.986;18.208;2023-02-18T05:59:33;1.70;;;0.40;;
57303;SDS011;43150;50.986;18.208;2023-02-18T06:01:59;2.40;;;0.60;;
57303;SDS011;43150;50.986;18.208;2023-02-18T06:04:24;1.60;;;0.40;;
57303;SDS011;43150;50.986;18.208;2023-02-18T06:06:50;1.90;;;0.40;;
57303;SDS011;43150;50.986;18.208;2023-02-18T06:09:16;2.30;;;0.70;;
57303;SDS011;43150;50.986;18.208;2023-02-18T06:11:42;1.10;;;0.50;;
57303;SDS011;43150;50.986;18.208;2023-02-18T06:14:07;1.50;;;0.40;;
57303;SDS011;43150;50.986;18.208;2023-02-18T06:16:33;2.20;;;0.60;;
57303;SDS011;43150;50.986;18.208;2023-02-18T06:18:59;0.70;;;0.40;;
57303;SDS011;43150;50.986;18.208;2023-02-18T06:21:24;1.80;;;0.40;;
57303;SDS011;43150;50.986;18.208;2023-02-18T06:23:50;1.00;;;0.40;;
57303;SDS011;43150;50.986;18.208;2023-02-18T06:26:15;3.80;;;0.70;;
57303;SDS011;43150;50.986;18.208;2023-02-18T06:28:44;1.10;;;0.30;;
57303;SDS011;43150;50.986;18.208;2023-02-18T06:31:10;1.30;;;0.50;;
57303;SDS011;43150;50.986;18.208;2023-02-18T06:33:38;0.80;;;0.60;;
57303;SDS011;43150;50.986;18.208;2023-02-18T06:36:05;0.70;;;0.40;;
57303;SDS011;43150;50.986;18.208;2023-02-18T06:38:35;1.20;;;0.60;;
57303;SDS011;43150;50.986;18.208;2023-02-18T06:41:01;1.00;;;0.50;;
57303;SDS011;43150;50.986;18.208;2023-02-18T06:43:27;1.30;;;0.50;;
57303;SDS011;43150;50.986;18.208;2023-02-18T06:45:52;0.70;;;0.40;;
57303;SDS011;43150;50.986;18.208;2023-02-18T06:48:18;1.00;;;0.50;;
57303;SDS011;43150;50.986;18.208;2023-02-18T06:50:43;2.20;;;0.50;;
57303;SDS011;43150;50.986;18.208;2023-02-18T06:53:10;1.60;;;0.70;;
57303;SDS011;43150;50.986;18.208;2023-02-18T06:55:35;2.00;;;0.50;;
57303;SDS011;43150;50.986;18.208;2023-02-18T06:58:01;4.00;;;0.70;;
57303;SDS011;43150;50.986;18.208;2023-02-18T07:00:27;2.50;;;0.30;;
57303;SDS011;43150;50.986;18.208;2023-02-18T07:02:55;1.10;;;0.60;;
57303;SDS011;43150;50.986;18.208;2023-02-18T07:05:20;1.00;;;0.30;;
57303;SDS011;43150;50.986;18.208;2023-02-18T07:07:46;0.90;;;0.40;;
57303;SDS011;43150;50.986;18.208;2023-02-18T07:10:12;2.30;;;0.60;;
57303;SDS011;43150;50.986;18.208;2023-02-18T07:12:38;2.00;;;0.70;;
57303;SDS011;43150;50.986;18.208;2023-02-18T07:15:03;2.20;;;0.40;;
57303;SDS011;43150;50.986;18.208;2023-02-18T07:17:29;1.90;;;0.50;;
57303;SDS011;43150;50.986;18.208;2023-02-18T07:19:54;2.70;;;0.50;;
57303;SDS011;43150;50.986;18.208;2023-02-18T07:22:20;1.40;;;0.50;;
57303;SDS011;43150;50.986;18.208;2023-02-18T07:24:50;0.70;;;0.40;;
57303;SDS011;43150;50.986;18.208;2023-02-18T07:27:17;2.90;;;0.40;;
57303;SDS011;43150;50.986;18.208;2023-02-18T07:29:42;1.00;;;0.50;;
57303;SDS011;43150;50.986;18.208;2023-02-18T07:32:13;1.00;;;0.50;;
57303;SDS011;43150;50.986;18.208;2023-02-18T07:34:39;0.80;;;0.50;;
57303;SDS011;43150;50.986;18.208;2023-02-18T07:37:04;1.20;;;0.70;;
57303;SDS011;43150;50.986;18.208;2023-02-18T07:39:42;1.90;;;0.70;;
57303;SDS011;43150;50.986;18.208;2023-02-18T07:42:09;0.60;;;0.30;;
57303;SDS011;43150;50.986;18.208;2023-02-18T07:44:35;1.30;;;0.40;;
57303;SDS011;43150;50.986;18.208;2023-02-18T07:47:02;1.70;;;0.60;;
57303;SDS011;43150;50.986;18.208;2023-02-18T07:49:28;1.50;;;0.60;;
57303;SDS011;43150;50.986;18.208;2023-02-18T07:51:53;1.10;;;0.30;;
57303;SDS011;43150;50.986;18.208;2023-02-18T07:54:19;1.00;;;0.30;;
57303;SDS011;43150;50.986;18.208;2023-02-18T07:56:44;2.00;;;0.50;;
57303;SDS011;43150;50.986;18.208;2023-02-18T07:59:10;1.30;;;0.60;;
57303;SDS011;43150;50.986;18.208;2023-02-18T08:01:36;2.60;;;0.80;;
57303;SDS011;43150;50.986;18.208;2023-02-18T08:04:02;3.20;;;0.90;;
57303;SDS011;43150;50.986;18.208;2023-02-18T08:06:34;1.60;;;0.50;;
57303;SDS011;43150;50.986;18.208;2023-02-18T08:09:00;3.40;;;0.50;;
57303;SDS011;43150;50.986;18.208;2023-02-18T08:11:26;2.40;;;0.70;;
57303;SDS011;43150;50.986;18.208;2023-02-18T08:13:51;1.80;;;0.50;;
57303;SDS011;43150;50.986;18.208;2023-02-18T08:16:18;0.80;;;0.30;;
57303;SDS011;43150;50.986;18.208;2023-02-18T08:18:44;0.90;;;0.40;;
57303;SDS011;43150;50.986;18.208;2023-02-18T08:21:12;2.10;;;0.80;;
57303;SDS011;43150;50.986;18.208;2023-02-18T08:23:38;2.30;;;0.70;;
57303;SDS011;43150;50.986;18.208;2023-02-18T08:26:03;0.50;;;0.30;;
57303;SDS011;43150;50.986;18.208;2023-02-18T08:28:29;1.90;;;0.40;;
57303;SDS011;43150;50.986;18.208;2023-02-18T08:30:55;1.70;;;0.60;;
57303;SDS011;43150;50.986;18.208;2023-02-18T08:33:21;1.70;;;0.80;;
57303;SDS011;43150;50.986;18.208;2023-02-18T08:35:48;3.40;;;0.90;;
57303;SDS011;43150;50.986;18.208;2023-02-18T08:38:13;1.30;;;0.50;;
57303;SDS011;43150;50.986;18.208;2023-02-18T08:40:42;2.40;;;0.60;;
57303;SDS011;43150;50.986;18.208;2023-02-18T08:43:08;3.70;;;1.00;;
57303;SDS011;43150;50.986;18.208;2023-02-18T08:45:33;2.40;;;0.70;;
57303;SDS011;43150;50.986;18.208;2023-02-18T08:47:59;2.30;;;1.10;;
57303;SDS011;43150;50.986;18.208;2023-02-18T08:50:24;2.40;;;0.80;;
57303;SDS011;43150;50.986;18.208;2023-02-18T08:52:52;0.70;;;0.30;;
57303;SDS011;43150;50.986;18.208;2023-02-18T08:55:18;3.10;;;1.00;;
57303;SDS011;43150;50.986;18.208;2023-02-18T08:57:48;1.30;;;0.50;;
57303;SDS011;43150;50.986;18.208;2023-02-18T09:00:15;1.70;;;0.50;;
57303;SDS011;43150;50.986;18.208;2023-02-18T09:02:41;1.20;;;0.60;;
57303;SDS011;43150;50.986;18.208;2023-02-18T09:05:07;3.50;;;0.70;;
57303;SDS011;43150;50.986;18.208;2023-02-18T09:07:34;1.00;;;0.50;;
57303;SDS011;43150;50.986;18.208;2023-02-18T09:10:00;1.40;;;0.60;;
57303;SDS011;43150;50.986;18.208;2023-02-18T09:12:25;3.70;;;0.90;;
57303;SDS011;43150;50.986;18.208;2023-02-18T09:14:54;2.20;;;0.90;;
57303;SDS011;43150;50.986;18.208;2023-02-18T09:17:20;0.90;;;0.60;;
57303;SDS011;43150;50.986;18.208;2023-02-18T09:19:49;1.50;;;0.60;;
57303;SDS011;43150;50.986;18.208;2023-02-18T09:22:18;1.40;;;0.60;;
57303;SDS011;43150;50.986;18.208;2023-02-18T09:24:44;2.40;;;0.60;;
57303;SDS011;43150;50.986;18.208;2023-02-18T09:27:10;2.50;;;0.70;;
57303;SDS011;43150;50.986;18.208;2023-02-18T09:29:39;1.50;;;0.50;;
57303;SDS011;43150;50.986;18.208;2023-02-18T09:32:05;3.50;;;0.80;;
57303;SDS011;43150;50.986;18.208;2023-02-18T09:34:31;3.10;;;1.20;;
57303;SDS011;43150;50.986;18.208;2023-02-18T09:36:57;2.30;;;0.70;;
57303;SDS011;43150;50.986;18.208;2023-02-18T09:39:23;2.40;;;0.90;;
57303;SDS011;43150;50.986;18.208;2023-02-18T09:41:49;2.10;;;0.70;;
57303;SDS011;43150;50.986;18.208;2023-02-18T09:44:34;0.90;;;0.40;;
57303;SDS011;43150;50.986;18.208;2023-02-18T09:47:06;1.80;;;0.90;;
57303;SDS011;43150;50.986;18.208;2023-02-18T09:49:35;2.10;;;0.70;;
57303;SDS011;43150;50.986;18.208;2023-02-18T09:57:46;2.50;;;0.60;;
57303;SDS011;43150;50.986;18.208;2023-02-18T10:00:24;0.80;;;0.50;;
57303;SDS011;43150;50.986;18.208;2023-02-18T10:02:58;1.30;;;0.60;;
57303;SDS011;43150;50.986;18.208;2023-02-18T10:05:25;1.60;;;0.80;;
57303;SDS011;43150;50.986;18.208;2023-02-18T10:07:53;2.70;;;0.40;;
57303;SDS011;43150;50.986;18.208;2023-02-18T10:10:23;2.10;;;0.60;;
57303;SDS011;43150;50.986;18.208;2023-02-18T10:12:49;1.30;;;0.60;;
57303;SDS011;43150;50.986;18.208;2023-02-18T10:15:17;2.20;;;0.50;;
57303;SDS011;43150;50.986;18.208;2023-02-18T10:17:44;1.90;;;0.60;;
57303;SDS011;43150;50.986;18.208;2023-02-18T10:20:10;2.30;;;0.80;;
57303;SDS011;43150;50.986;18.208;2023-02-18T10:22:40;2.40;;;0.80;;
57303;SDS011;43150;50.986;18.208;2023-02-18T10:25:06;0.90;;;0.40;;
57303;SDS011;43150;50.986;18.208;2023-02-18T10:27:34;1.00;;;0.40;;
57303;SDS011;43150;50.986;18.208;2023-02-18T10:30:22;2.40;;;0.90;;
57303;SDS011;43150;50.986;18.208;2023-02-18T10:32:46;1.40;;;0.30;;
57303;SDS011;43150;50.986;18.208;2023-02-18T10:35:18;3.20;;;0.60;;
57303;SDS011;43150;50.986;18.208;2023-02-18T10:45:32;1.00;;;0.50;;
57303;SDS011;43150;50.986;18.208;2023-02-18T10:50:41;1.40;;;0.40;;
57303;SDS011;43150;50.986;18.208;2023-02-18T10:53:10;1.80;;;0.50;;
57303;SDS011;43150;50.986;18.208;2023-02-18T10:55:37;0.90;;;0.50;;
57303;SDS011;43150;50.986;18.208;2023-02-18T10:58:05;2.10;;;0.80;;
57303;SDS011;43150;50.986;18.208;2023-02-18T11:01:06;1.50;;;0.80;;
57303;SDS011;43150;50.986;18.208;2023-02-18T11:06:14;3.00;;;1.10;;
57303;SDS011;43150;50.986;18.208;2023-02-18T11:08:41;3.30;;;0.90;;
57303;SDS011;43150;50.986;18.208;2023-02-18T11:11:15;2.00;;;0.80;;
57303;SDS011;43150;50.986;18.208;2023-02-18T11:13:42;2.10;;;0.60;;
57303;SDS011;43150;50.986;18.208;2023-02-18T11:16:12;2.30;;;0.70;;
57303;SDS011;43150;50.986;18.208;2023-02-18T11:18:43;2.60;;;0.90;;
57303;SDS011;43150;50.986;18.208;2023-02-18T11:24:07;3.50;;;0.90;;
57303;SDS011;43150;50.986;18.208;2023-02-18T11:26:33;2.30;;;0.60;;
57303;SDS011;43150;50.986;18.208;2023-02-18T11:29:01;3.40;;;1.10;;
57303;SDS011;43150;50.986;18.208;2023-02-18T11:31:37;2.00;;;0.70;;
57303;SDS011;43150;50.986;18.208;2023-02-18T11:34:04;1.70;;;0.80;;
57303;SDS011;43150;50.986;18.208;2023-02-18T11:36:31;2.10;;;0.80;;
57303;SDS011;43150;50.986;18.208;2023-02-18T11:39:01;6.40;;;1.20;;
57303;SDS011;43150;50.986;18.208;2023-02-18T11:43:57;3.70;;;1.00;;
57303;SDS011;43150;50.986;18.208;2023-02-18T11:46:24;5.30;;;0.90;;
57303;SDS011;43150;50.986;18.208;2023-02-18T11:48:51;2.90;;;0.80;;
57303;SDS011;43150;50.986;18.208;2023-02-18T11:51:18;2.40;;;1.00;;
57303;SDS011;43150;50.986;18.208;2023-02-18T11:56:41;4.00;;;1.20;;
57303;SDS011;43150;50.986;18.208;2023-02-18T11:59:28;3.30;;;1.30;;
57303;SDS011;43150;50.986;18.208;2023-02-18T12:02:21;5.60;;;1.80;;
57303;SDS011;43150;50.986;18.208;2023-02-18T12:07:42;2.60;;;1.40;;
57303;SDS011;43150;50.986;18.208;2023-02-18T12:10:22;5.20;;;1.90;;
57303;SDS011;43150;50.986;18.208;2023-02-18T12:12:54;4.00;;;1.80;;
57303;SDS011;43150;50.986;18.208;2023-02-18T12:15:31;4.20;;;2.10;;
57303;SDS011;43150;50.986;18.208;2023-02-18T12:28:22;5.90;;;2.90;;
57303;SDS011;43150;50.986;18.208;2023-02-18T12:49:09;14.10;;;5.40;;
57303;SDS011;43150;50.986;18.208;2023-02-18T13:10:07;9.00;;;4.20;;
57303;SDS011;43150;50.986;18.208;2023-02-18T13:12:40;9.40;;;4.40;;
57303;SDS011;43150;50.986;18.208;2023-02-18T13:17:43;14.40;;;7.10;;
57303;SDS011;43150;50.986;18.208;2023-02-18T13:20:20;14.10;;;6.80;;
57303;SDS011;43150;50.986;18.208;2023-02-18T13:22:56;15.20;;;7.00;;
57303;SDS011;43150;50.986;18.208;2023-02-18T13:25:22;11.60;;;6.00;;
57303;SDS011;43150;50.986;18.208;2023-02-18T13:40:28;17.50;;;11.20;;
57303;SDS011;43150;50.986;18.208;2023-02-18T13:45:39;14.00;;;9.40;;
57303;SDS011;43150;50.986;18.208;2023-02-18T13:51:05;21.70;;;12.00;;
57303;SDS011;43150;50.986;18.208;2023-02-18T13:53:43;23.70;;;11.00;;
57303;SDS011;43150;50.986;18.208;2023-02-18T13:56:26;17.40;;;10.90;;
57303;SDS011;43150;50.986;18.208;2023-02-18T13:59:00;17.60;;;11.60;;
57303;SDS011;43150;50.986;18.208;2023-02-18T14:01:35;16.50;;;10.10;;
57303;SDS011;43150;50.986;18.208;2023-02-18T14:09:41;10.80;;;8.30;;
57303;SDS011;43150;50.986;18.208;2023-02-18T14:12:21;14.20;;;10.20;;
57303;SDS011;43150;50.986;18.208;2023-02-18T14:14:54;17.30;;;11.70;;
57303;SDS011;43150;50.986;18.208;2023-02-18T14:22:42;20.40;;;13.10;;
57303;SDS011;43150;50.986;18.208;2023-02-18T14:25:41;16.40;;;10.10;;
57303;SDS011;43150;50.986;18.208;2023-02-18T14:39:33;24.10;;;9.40;;
57303;SDS011;43150;50.986;18.208;2023-02-18T14:48:34;37.20;;;17.20;;
57303;SDS011;43150;50.986;18.208;2023-02-18T14:51:15;8.80;;;5.80;;
57303;SDS011;43150;50.986;18.208;2023-02-18T14:53:47;10.30;;;5.40;;
57303;SDS011;43150;50.986;18.208;2023-02-18T14:56:15;10.50;;;7.40;;
57303;SDS011;43150;50.986;18.208;2023-02-18T14:58:49;17.40;;;12.00;;
57303;SDS011;43150;50.986;18.208;2023-02-18T15:04:10;24.00;;;14.70;;
57303;SDS011;43150;50.986;18.208;2023-02-18T15:06:46;19.00;;;11.10;;
57303;SDS011;43150;50.986;18.208;2023-02-18T15:09:22;17.20;;;9.80;;
57303;SDS011;43150;50.986;18.208;2023-02-18T15:12:11;22.00;;;13.40;;
57303;SDS011;43150;50.986;18.208;2023-02-18T15:14:39;24.20;;;16.30;;
57303;SDS011;43150;50.986;18.208;2023-02-18T15:17:21;17.40;;;9.20;;
57303;SDS011;43150;50.986;18.208;2023-02-18T15:19:51;7.30;;;4.30;;
57303;SDS011;43150;50.986;18.208;2023-02-18T15:22:19;9.40;;;4.80;;
57303;SDS011;43150;50.986;18.208;2023-02-18T15:24:50;15.00;;;8.30;;
57303;SDS011;43150;50.986;18.208;2023-02-18T15:27:30;11.50;;;7.20;;
57303;SDS011;43150;50.986;18.208;2023-02-18T15:29:58;10.20;;;5.70;;
57303;SDS011;43150;50.986;18.208;2023-02-18T15:32:54;10.80;;;6.40;;
57303;SDS011;43150;50.986;18.208;2023-02-18T15:35:22;8.30;;;4.30;;
57303;SDS011;43150;50.986;18.208;2023-02-18T15:37:59;6.20;;;4.00;;
57303;SDS011;43150;50.986;18.208;2023-02-18T15:40:31;17.50;;;8.40;;
57303;SDS011;43150;50.986;18.208;2023-02-18T15:43:00;10.60;;;5.70;;
57303;SDS011;43150;50.986;18.208;2023-02-18T15:45:30;12.80;;;6.80;;
57303;SDS011;43150;50.986;18.208;2023-02-18T15:48:00;11.50;;;6.60;;
57303;SDS011;43150;50.986;18.208;2023-02-18T15:50:27;12.60;;;7.90;;
57303;SDS011;43150;50.986;18.208;2023-02-18T15:52:54;9.80;;;5.90;;
57303;SDS011;43150;50.986;18.208;2023-02-18T15:55:29;13.80;;;7.00;;
57303;SDS011;43150;50.986;18.208;2023-02-18T15:58:12;9.50;;;8.30;;
57303;SDS011;43150;50.986;18.208;2023-02-18T16:00:46;16.10;;;7.70;;
57303;SDS011;43150;50.986;18.208;2023-02-18T16:03:23;13.60;;;6.40;;
57303;SDS011;43150;50.986;18.208;2023-02-18T16:05:50;10.50;;;5.80;;
57303;SDS011;43150;50.986;18.208;2023-02-18T16:08:23;6.30;;;3.80;;
57303;SDS011;43150;50.986;18.208;2023-02-18T16:10:54;7.20;;;4.30;;
57303;SDS011;43150;50.986;18.208;2023-02-18T16:13:30;5.80;;;4.00;;
57303;SDS011;43150;50.986;18.208;2023-02-18T16:16:05;6.20;;;3.50;;
57303;SDS011;43150;50.986;18.208;2023-02-18T16:18:35;10.80;;;5.70;;
57303;SDS011;43150;50.986;18.208;2023-02-18T16:21:04;12.30;;;6.20;;
57303;SDS011;43150;50.986;18.208;2023-02-18T16:23:33;10.10;;;5.20;;
57303;SDS011;43150;50.986;18.208;2023-02-18T16:26:08;11.80;;;5.70;;
57303;SDS011;43150;50.986;18.208;2023-02-18T16:28:40;8.50;;;5.10;;
57303;SDS011;43150;50.986;18.208;2023-02-18T16:31:14;9.60;;;5.90;;
57303;SDS011;43150;50.986;18.208;2023-02-18T16:33:42;10.60;;;5.80;;
57303;SDS011;43150;50.986;18.208;2023-02-18T16:36:14;8.20;;;5.10;;
57303;SDS011;43150;50.986;18.208;2023-02-18T16:38:41;8.10;;;4.30;;
57303;SDS011;43150;50.986;18.208;2023-02-18T16:41:07;11.10;;;4.90;;
57303;SDS011;43150;50.986;18.208;2023-02-18T16:43:33;8.00;;;4.40;;
57303;SDS011;43150;50.986;18.208;2023-02-18T16:46:17;7.20;;;4.90;;
57303;SDS011;43150;50.986;18.208;2023-02-18T16:48:50;13.00;;;6.80;;
57303;SDS011;43150;50.986;18.208;2023-02-18T16:51:18;7.50;;;4.90;;
57303;SDS011;43150;50.986;18.208;2023-02-18T16:53:45;9.90;;;8.20;;
57303;SDS011;43150;50.986;18.208;2023-02-18T16:56:15;8.10;;;5.40;;
57303;SDS011;43150;50.986;18.208;2023-02-18T16:58:43;7.10;;;4.40;;
57303;SDS011;43150;50.986;18.208;2023-02-18T17:01:22;7.80;;;4.60;;
57303;SDS011;43150;50.986;18.208;2023-02-18T17:06:20;5.00;;;2.80;;
57303;SDS011;43150;50.986;18.208;2023-02-18T17:11:52;7.60;;;3.20;;
57303;SDS011;43150;50.986;18.208;2023-02-18T17:14:19;4.20;;;3.10;;
57303;SDS011;43150;50.986;18.208;2023-02-18T17:16:45;4.00;;;2.20;;
57303;SDS011;43150;50.986;18.208;2023-02-18T17:19:16;2.20;;;1.40;;
57303;SDS011;43150;50.986;18.208;2023-02-18T17:21:41;2.40;;;1.60;;
57303;SDS011;43150;50.986;18.208;2023-02-18T17:24:10;2.20;;;1.40;;
57303;SDS011;43150;50.986;18.208;2023-02-18T17:26:36;2.50;;;1.50;;
57303;SDS011;43150;50.986;18.208;2023-02-18T17:29:05;1.70;;;0.80;;
57303;SDS011;43150;50.986;18.208;2023-02-18T17:31:35;1.50;;;0.80;;